Time;durP1;ratioP1;P1;durP2;ratioP2;P2;SDS_P1;SDS_P2;PMS_P1;PMS_P2;Temp;Humidity;BMP_temperature;BMP_pressure;BME280_temperature;BME280_humidity;BME280_pressure;Samples;Min_cycle;Max_cycle;Signal;HPM_P1;HPM_P2
2022/03/02 00:00:21;;;;;;;14.38;11.48;;;1.30;87.10;;;;;;6108753;23;20200;-70
2022/03/02 00:02:48;;;;;;;14.48;12.20;;;1.30;87.40;;;;;;6091193;23;20233;-70
2022/03/02 00:05:16;;;;;;;13.57;11.07;;;1.30;87.40;;;;;;6091311;23;20184;-70
2022/03/02 00:07:44;;;;;;;16.00;12.80;;;1.30;87.30;;;;;;6090767;23;20196;-70
2022/03/02 00:10:11;;;;;;;13.70;11.57;;;1.30;87.50;;;;;;6110939;23;20209;-70
2022/03/02 00:12:38;;;;;;;14.60;13.18;;;1.30;87.80;;;;;;6111178;23;20184;-70
2022/03/02 00:15:05;;;;;;;14.02;11.95;;;1.30;87.80;;;;;;6091860;23;20223;-70
2022/03/02 00:17:33;;;;;;;13.93;11.70;;;1.30;88.30;;;;;;6098807;23;20238;-70
2022/03/02 00:20:00;;;;;;;13.90;12.15;;;1.30;88.50;;;;;;6091246;23;20266;-70
2022/03/02 00:22:27;;;;;;;12.90;11.60;;;1.20;89.20;;;;;;6105074;23;20183;-70
2022/03/02 00:24:55;;;;;;;17.70;12.90;;;1.30;89.50;;;;;;6116203;23;20184;-70
2022/03/02 00:27:24;;;;;;;18.27;13.07;;;1.30;89.60;;;;;;6109459;23;20693;-70
2022/03/02 00:29:51;;;;;;;13.63;11.63;;;1.30;89.50;;;;;;6091616;23;20230;-71
2022/03/02 00:32:18;;;;;;;13.93;12.00;;;1.40;89.90;;;;;;6085302;23;20302;-70
2022/03/02 00:34:45;;;;;;;14.90;12.45;;;1.40;89.90;;;;;;6091984;23;20264;-70
2022/03/02 00:37:14;;;;;;;14.10;11.90;;;1.40;90.10;;;;;;6080342;23;20272;-70
2022/03/02 00:39:41;;;;;;;13.18;11.75;;;1.50;90.10;;;;;;6090451;23;20643;-70
2022/03/02 00:42:10;;;;;;;15.20;11.65;;;1.50;90.00;;;;;;6090918;23;20185;-70
2022/03/02 00:44:38;;;;;;;14.10;12.15;;;1.50;90.00;;;;;;6100052;23;20192;-70
2022/03/02 00:47:06;;;;;;;14.23;12.15;;;1.50;90.10;;;;;;6082946;23;20796;-70
2022/03/02 00:49:34;;;;;;;12.63;10.88;;;1.60;90.10;;;;;;6103127;23;20206;-70
2022/03/02 00:52:02;;;;;;;13.73;12.32;;;1.60;90.00;;;;;;6095960;23;20270;-70
2022/03/02 00:54:30;;;;;;;13.07;11.65;;;1.70;89.90;;;;;;6094863;23;20553;-70
2022/03/02 00:56:57;;;;;;;13.00;10.85;;;1.70;89.60;;;;;;6098607;23;20191;-70
2022/03/02 00:59:25;;;;;;;13.52;11.57;;;1.70;89.30;;;;;;6091693;23;20227;-70
2022/03/02 01:01:52;;;;;;;13.13;11.60;;;1.70;89.10;;;;;;6091381;23;20836;-70
2022/03/02 01:04:19;;;;;;;12.50;11.02;;;1.80;89.00;;;;;;6086656;23;20184;-70
2022/03/02 01:06:46;;;;;;;12.02;10.75;;;1.80;88.80;;;;;;6087304;23;20544;-70
2022/03/02 01:09:13;;;;;;;13.32;11.70;;;1.90;88.30;;;;;;6088804;23;20561;-70
2022/03/02 01:11:40;;;;;;;11.85;10.73;;;1.90;88.10;;;;;;6085974;23;20259;-70
2022/03/02 01:14:07;;;;;;;13.98;10.90;;;1.90;87.90;;;;;;6093196;23;20184;-70
2022/03/02 01:16:36;;;;;;;15.68;11.35;;;1.90;87.70;;;;;;6108400;23;20525;-71
2022/03/02 01:19:04;;;;;;;13.65;11.50;;;2.00;88.00;;;;;;6116998;23;20244;-70
2022/03/02 01:21:31;;;;;;;13.32;11.95;;;2.00;87.80;;;;;;6090850;23;20265;-70
2022/03/02 01:23:59;;;;;;;14.52;11.50;;;2.00;87.70;;;;;;6114877;23;20191;-70
2022/03/02 01:26:28;;;;;;;12.88;11.57;;;2.00;87.70;;;;;;6108861;23;20189;-69
2022/03/02 01:28:56;;;;;;;11.90;10.63;;;2.00;87.70;;;;;;6088714;23;20211;-71
2022/03/02 01:31:23;;;;;;;13.35;11.88;;;2.00;87.80;;;;;;6099913;23;20184;-72
2022/03/02 01:33:53;;;;;;;14.77;11.48;;;2.00;87.70;;;;;;6088696;23;20216;-72
2022/03/02 01:36:20;;;;;;;12.18;10.98;;;2.00;87.60;;;;;;6109117;23;20181;-72
2022/03/02 01:38:47;;;;;;;12.85;11.43;;;2.00;87.70;;;;;;6105196;23;20227;-72
2022/03/02 01:41:16;;;;;;;12.07;10.70;;;2.00;87.70;;;;;;6091097;23;20184;-71
2022/03/02 01:43:43;;;;;;;14.02;11.73;;;2.00;87.90;;;;;;6088792;23;20233;-72
2022/03/02 01:46:11;;;;;;;12.98;11.18;;;1.90;88.00;;;;;;6110885;23;20192;-72
2022/03/02 01:48:38;;;;;;;13.30;11.20;;;1.90;87.90;;;;;;6074977;23;20730;-72
2022/03/02 01:51:06;;;;;;;14.82;12.20;;;1.80;88.00;;;;;;6108399;23;20214;-72
2022/03/02 01:53:34;;;;;;;12.55;11.25;;;1.80;88.20;;;;;;6091062;23;20188;-72
2022/03/02 01:56:01;;;;;;;14.52;11.80;;;1.80;88.50;;;;;;6113562;23;20190;-72
2022/03/02 01:58:29;;;;;;;12.02;10.75;;;1.80;88.50;;;;;;6098362;23;20831;-72
2022/03/02 02:00:57;;;;;;;12.90;11.50;;;1.70;88.20;;;;;;6109632;23;20263;-71
2022/03/02 02:03:24;;;;;;;12.80;11.50;;;1.60;88.50;;;;;;6096097;23;20259;-72
2022/03/02 02:05:52;;;;;;;14.75;11.98;;;1.50;88.80;;;;;;6092518;23;20243;-71
2022/03/02 02:08:20;;;;;;;13.35;12.00;;;1.50;89.40;;;;;;6093531;23;20291;-72
2022/03/02 02:10:48;;;;;;;13.20;11.85;;;1.30;89.70;;;;;;6114980;23;20245;-71
2022/03/02 02:13:15;;;;;;;14.02;11.70;;;1.30;90.10;;;;;;6108005;23;20179;-72
2022/03/02 02:15:42;;;;;;;16.75;12.35;;;1.20;90.20;;;;;;6106077;23;20190;-72
2022/03/02 02:18:10;;;;;;;15.57;11.70;;;1.10;90.50;;;;;;6077209;23;20690;-71
2022/03/02 02:20:38;;;;;;;13.95;11.40;;;1.10;90.70;;;;;;6077315;23;20203;-72
2022/03/02 02:23:06;;;;;;;12.93;11.48;;;1.00;90.90;;;;;;6092894;23;20203;-71
2022/03/02 02:25:33;;;;;;;13.32;11.82;;;0.90;91.00;;;;;;6106933;23;20650;-71
2022/03/02 02:28:01;;;;;;;13.85;11.43;;;0.90;91.20;;;;;;6114832;23;20555;-71
2022/03/02 02:30:30;;;;;;;11.95;10.75;;;0.80;91.40;;;;;;6113353;23;20634;-71
2022/03/02 02:32:58;;;;;;;10.27;9.27;;;0.70;91.60;;;;;;6098330;23;20215;-69
2022/03/02 02:35:26;;;;;;;14.20;11.50;;;0.70;91.70;;;;;;6096297;23;20181;-69
2022/03/02 02:37:55;;;;;;;11.98;10.68;;;0.60;92.00;;;;;;6114899;23;20212;-70
2022/03/02 02:40:22;;;;;;;12.70;10.80;;;0.50;92.30;;;;;;6108898;23;20272;-69
2022/03/02 02:42:50;;;;;;;12.05;10.75;;;0.50;92.60;;;;;;6100755;23;20185;-69
2022/03/02 02:45:20;;;;;;;11.93;10.45;;;0.50;92.90;;;;;;6096923;23;20542;-69
2022/03/02 02:47:49;;;;;;;11.65;10.35;;;0.40;93.10;;;;;;6087789;23;20694;-69
2022/03/02 02:50:18;;;;;;;12.43;10.43;;;0.30;93.40;;;;;;6081887;23;20187;-69
2022/03/02 02:52:45;;;;;;;11.90;10.52;;;0.30;93.80;;;;;;6080622;23;20200;-69
2022/03/02 02:55:15;;;;;;;13.27;11.98;;;0.20;94.10;;;;;;6106149;23;20608;-69
2022/03/02 02:57:42;;;;;;;12.15;10.95;;;0.20;94.40;;;;;;6062042;23;20288;-69
2022/03/02 03:00:13;;;;;;;14.85;12.07;;;0.20;94.60;;;;;;6062847;23;20220;-69
2022/03/02 03:02:40;;;;;;;13.40;11.27;;;0.20;94.80;;;;;;6061838;23;20191;-71
2022/03/02 03:05:11;;;;;;;15.45;11.35;;;0.20;94.90;;;;;;6085141;23;20982;-69
2022/03/02 03:07:38;;;;;;;15.35;12.80;;;0.20;95.20;;;;;;6113443;23;20269;-69
2022/03/02 03:10:06;;;;;;;12.70;11.38;;;0.20;95.50;;;;;;6071061;23;20199;-69
2022/03/02 03:12:35;;;;;;;13.98;11.98;;;0.20;95.70;;;;;;6061524;23;20679;-70
2022/03/02 03:15:05;;;;;;;13.90;11.88;;;0.20;95.80;;;;;;6092301;23;20194;-70
2022/03/02 03:17:33;;;;;;;14.30;11.73;;;0.20;96.10;;;;;;6112832;23;20248;-70
2022/03/02 03:20:00;;;;;;;14.48;12.60;;;0.20;96.20;;;;;;6088479;23;20211;-70
2022/03/02 03:22:27;;;;;;;17.10;13.13;;;0.30;96.30;;;;;;6101394;23;20271;-70
2022/03/02 03:24:54;;;;;;;16.25;13.48;;;0.30;96.50;;;;;;6101448;23;20188;-70
2022/03/02 03:27:21;;;;;;;15.15;13.32;;;0.40;96.60;;;;;;6075495;23;20651;-70
2022/03/02 03:29:50;;;;;;;17.77;13.68;;;0.40;96.70;;;;;;6077028;23;20683;-70
2022/03/02 03:32:17;;;;;;;16.35;13.05;;;0.30;96.90;;;;;;6096502;23;20191;-71
2022/03/02 03:34:44;;;;;;;14.75;12.98;;;0.30;97.10;;;;;;6099702;23;20185;-70
2022/03/02 03:37:11;;;;;;;14.00;11.93;;;0.30;97.00;;;;;;6114784;23;20184;-70
2022/03/02 03:39:38;;;;;;;15.85;12.15;;;0.30;97.00;;;;;;6106650;23;20216;-70
2022/03/02 03:42:05;;;;;;;15.02;11.98;;;0.30;96.80;;;;;;6089603;23;20266;-70
2022/03/02 03:44:32;;;;;;;14.73;11.82;;;0.30;96.90;;;;;;6097313;23;20184;-70
2022/03/02 03:47:00;;;;;;;14.25;12.65;;;0.20;96.90;;;;;;6096765;23;20187;-70
2022/03/02 03:49:27;;;;;;;13.90;11.93;;;0.20;96.90;;;;;;6067369;23;20211;-72
2022/03/02 03:51:54;;;;;;;14.30;11.65;;;0.20;96.90;;;;;;6078775;23;20184;-70
2022/03/02 03:54:21;;;;;;;13.63;11.50;;;0.10;97.00;;;;;;6097761;23;20259;-69
2022/03/02 03:56:49;;;;;;;15.73;13.38;;;0.10;97.30;;;;;;6094932;23;20261;-70
2022/03/02 03:59:16;;;;;;;14.98;13.48;;;0.00;97.50;;;;;;6091548;23;20305;-70
2022/03/02 04:01:43;;;;;;;17.60;12.98;;;0.00;97.70;;;;;;6095458;23;20199;-70
2022/03/02 04:04:11;;;;;;;17.15;12.98;;;0.00;97.90;;;;;;6097716;23;20225;-70
2022/03/02 04:06:38;;;;;;;15.18;12.63;;;0.00;98.20;;;;;;6113125;23;20194;-69
2022/03/02 04:09:06;;;;;;;14.13;12.63;;;0.00;98.40;;;;;;6111467;23;20208;-69
2022/03/02 04:11:33;;;;;;;15.80;11.90;;;0.00;98.50;;;;;;6113567;23;20195;-69
2022/03/02 04:14:00;;;;;;;15.27;12.90;;;0.00;98.60;;;;;;6094441;23;20255;-69
2022/03/02 04:16:27;;;;;;;17.73;14.25;;;-0.10;98.70;;;;;;6096618;23;20204;-70
2022/03/02 04:18:54;;;;;;;13.30;11.82;;;-0.10;98.70;;;;;;6101503;23;20219;-70
2022/03/02 04:21:22;;;;;;;13.27;11.23;;;-0.20;98.80;;;;;;6106403;23;20234;-70
2022/03/02 04:23:49;;;;;;;13.07;11.65;;;-0.20;98.90;;;;;;6104441;23;20187;-70
2022/03/02 04:26:16;;;;;;;14.88;12.20;;;-0.20;99.00;;;;;;6087480;23;20311;-71
2022/03/02 04:28:43;;;;;;;18.20;13.73;;;-0.20;99.10;;;;;;6091654;23;20211;-70
2022/03/02 04:31:10;;;;;;;15.05;11.77;;;-0.20;99.20;;;;;;6097784;23;20539;-70
2022/03/02 04:33:37;;;;;;;14.02;12.05;;;-0.20;99.40;;;;;;6085008;23;20185;-70
2022/03/02 04:36:05;;;;;;;15.00;12.65;;;-0.20;99.50;;;;;;6063083;23;20201;-70
2022/03/02 04:38:34;;;;;;;13.20;11.55;;;-0.20;99.70;;;;;;6108991;23;20212;-70
2022/03/02 04:41:01;;;;;;;13.30;11.65;;;-0.20;99.80;;;;;;6096703;23;20544;-70
2022/03/02 04:43:28;;;;;;;14.48;11.98;;;-0.30;99.90;;;;;;6092377;23;20185;-70
2022/03/02 04:45:55;;;;;;;17.05;13.20;;;-0.20;99.90;;;;;;6087940;23;20187;-70
2022/03/02 04:48:22;;;;;;;13.85;12.40;;;-0.30;99.90;;;;;;6115091;23;20200;-70
2022/03/02 04:50:49;;;;;;;15.32;13.02;;;-0.30;99.90;;;;;;6066178;23;20197;-70
2022/03/02 04:53:16;;;;;;;14.52;13.00;;;-0.30;99.90;;;;;;6077548;23;20191;-70
2022/03/02 04:55:45;;;;;;;15.27;12.68;;;-0.30;99.90;;;;;;6094794;23;20556;-70
2022/03/02 04:58:13;;;;;;;14.00;12.50;;;-0.30;99.90;;;;;;6114865;23;20282;-70
2022/03/02 05:00:40;;;;;;;14.63;13.05;;;-0.40;99.90;;;;;;6120751;23;20298;-70
2022/03/02 05:03:07;;;;;;;17.55;12.75;;;-0.40;99.90;;;;;;6118037;23;20200;-70
2022/03/02 05:05:36;;;;;;;14.82;12.68;;;-0.40;99.90;;;;;;6094851;23;20202;-70
2022/03/02 05:08:03;;;;;;;14.18;12.68;;;-0.50;99.90;;;;;;6087279;23;20251;-70
2022/03/02 05:10:30;;;;;;;13.35;11.95;;;-0.50;99.90;;;;;;6067042;23;20656;-70
2022/03/02 05:13:00;;;;;;;14.93;12.55;;;-0.50;99.90;;;;;;6093021;23;20578;-70
2022/03/02 05:15:27;;;;;;;14.63;12.95;;;-0.60;99.90;;;;;;6118710;23;20651;-71
2022/03/02 05:17:54;;;;;;;14.93;12.88;;;-0.60;99.90;;;;;;6114137;23;20973;-70
2022/03/02 05:20:22;;;;;;;14.45;12.50;;;-0.60;99.90;;;;;;6103031;23;20205;-70
2022/03/02 05:22:50;;;;;;;14.80;12.32;;;-0.60;99.90;;;;;;6107601;23;20293;-70
2022/03/02 05:25:17;;;;;;;16.73;14.02;;;-0.70;99.90;;;;;;6093519;23;20196;-70
2022/03/02 05:27:46;;;;;;;18.45;14.15;;;-0.70;99.90;;;;;;6094154;23;20679;-69
2022/03/02 05:30:14;;;;;;;15.93;13.25;;;-0.70;99.90;;;;;;6091327;23;20551;-70
2022/03/02 05:32:41;;;;;;;16.98;13.75;;;-0.80;99.90;;;;;;6103447;23;20195;-70
2022/03/02 05:35:09;;;;;;;16.83;13.73;;;-0.80;99.90;;;;;;6111689;23;20258;-70
2022/03/02 05:37:42;;;;;;;16.23;13.70;;;-0.80;99.90;;;;;;6098729;23;20615;-70
2022/03/02 05:40:11;;;;;;;17.75;13.63;;;-0.90;99.90;;;;;;6108517;23;20722;-69
2022/03/02 05:42:38;;;;;;;15.73;13.52;;;-1.00;99.90;;;;;;6090139;23;20180;-71
2022/03/02 05:45:06;;;;;;;15.35;13.75;;;-1.00;99.90;;;;;;6097996;23;20228;-70
2022/03/02 05:47:35;;;;;;;14.35;12.30;;;-0.90;99.90;;;;;;6109048;23;20211;-70
2022/03/02 05:50:02;;;;;;;15.05;12.85;;;-0.90;99.90;;;;;;6102396;23;20274;-69
2022/03/02 05:52:29;;;;;;;17.48;13.32;;;-0.90;99.90;;;;;;6103861;23;20639;-70
2022/03/02 05:54:56;;;;;;;17.55;12.95;;;-0.90;99.90;;;;;;6112544;23;20184;-70
2022/03/02 05:57:23;;;;;;;16.63;13.70;;;-0.90;99.90;;;;;;6106288;23;20207;-71
2022/03/02 05:59:49;;;;;;;18.95;12.95;;;-0.90;99.90;;;;;;6081559;23;20215;-70
2022/03/02 06:02:17;;;;;;;14.93;12.57;;;-0.90;99.90;;;;;;6107249;23;20222;-69
2022/03/02 06:04:47;;;;;;;13.63;12.20;;;-0.90;99.90;;;;;;6118878;23;20275;-69
2022/03/02 06:07:14;;;;;;;16.75;13.13;;;-0.90;99.90;;;;;;6106252;23;20754;-71
2022/03/02 06:09:42;;;;;;;14.40;12.52;;;-0.90;99.90;;;;;;6092020;23;20266;-70
2022/03/02 06:12:10;;;;;;;15.63;13.18;;;-0.90;99.90;;;;;;6090802;23;20188;-71
2022/03/02 06:14:37;;;;;;;15.18;12.38;;;-0.90;99.90;;;;;;6108374;23;20582;-70
2022/03/02 06:17:05;;;;;;;14.75;13.25;;;-0.90;99.90;;;;;;6096711;23;20218;-70
2022/03/02 06:19:34;;;;;;;16.90;13.10;;;-0.90;99.90;;;;;;6091827;23;20216;-70
2022/03/02 06:22:05;;;;;;;14.00;12.57;;;-1.00;99.90;;;;;;6103397;23;20184;-70
2022/03/02 06:24:32;;;;;;;15.00;12.45;;;-1.00;99.90;;;;;;6086646;23;20198;-70
2022/03/02 06:26:59;;;;;;;13.13;11.73;;;-0.90;99.90;;;;;;6090099;23;20241;-70
2022/03/02 06:29:26;;;;;;;14.65;13.02;;;-0.90;99.90;;;;;;6100743;23;20194;-70
2022/03/02 06:31:53;;;;;;;13.25;11.85;;;-0.80;99.90;;;;;;6097352;23;20186;-70
2022/03/02 06:34:20;;;;;;;14.32;11.65;;;-0.70;99.90;;;;;;6094465;23;20207;-70
2022/03/02 06:36:50;;;;;;;15.98;11.48;;;-0.60;99.90;;;;;;6098093;23;20183;-70
2022/03/02 06:39:19;;;;;;;15.77;12.52;;;-0.50;99.90;;;;;;6087792;23;20669;-70
2022/03/02 06:41:57;;;;;;;14.63;12.05;;;-0.40;99.90;;;;;;6090080;23;20239;-70
2022/03/02 06:44:28;;;;;;;17.23;13.45;;;-0.30;99.90;;;;;;6097726;23;20524;-70
2022/03/02 06:47:03;;;;;;;15.15;11.73;;;-0.30;99.90;;;;;;6103237;23;20210;-69
2022/03/02 06:49:37;;;;;;;12.85;11.48;;;-0.10;99.90;;;;;;6097668;23;20266;-70
2022/03/02 06:52:06;;;;;;;13.73;11.27;;;-0.10;99.90;;;;;;6090704;23;20267;-70
2022/03/02 06:57:13;;;;;;;13.75;11.50;;;0.00;99.90;;;;;;6079868;22;20246;-70
2022/03/02 06:59:42;;;;;;;13.50;12.07;;;0.00;99.90;;;;;;6081238;23;20204;-71
2022/03/02 07:02:12;;;;;;;14.75;11.80;;;0.10;99.90;;;;;;6080701;23;20181;-71
2022/03/02 07:04:40;;;;;;;14.60;12.48;;;0.20;99.90;;;;;;6094453;23;20535;-70
2022/03/02 07:07:08;;;;;;;13.80;12.15;;;0.30;99.90;;;;;;6098272;23;20196;-69
2022/03/02 07:09:35;;;;;;;13.05;10.98;;;0.40;99.90;;;;;;6116321;23;20194;-71
2022/03/02 07:12:05;;;;;;;13.77;11.95;;;0.60;99.90;;;;;;6118283;23;20231;-71
2022/03/02 07:14:35;;;;;;;16.05;12.68;;;0.70;99.90;;;;;;6108836;23;20188;-69
2022/03/02 07:17:05;;;;;;;14.18;12.68;;;0.80;99.90;;;;;;6107093;23;20717;-68
2022/03/02 07:19:32;;;;;;;14.98;12.38;;;0.90;99.90;;;;;;6112831;23;20249;-69
2022/03/02 07:22:03;;;;;;;17.52;14.13;;;0.90;99.90;;;;;;6115490;23;20219;-70
2022/03/02 07:24:37;;;;;;;15.50;12.95;;;1.00;99.90;;;;;;6119391;23;20547;-72
2022/03/02 07:27:05;;;;;;;14.20;12.02;;;1.10;99.90;;;;;;6114751;23;20313;-72
2022/03/02 07:29:36;;;;;;;14.77;12.45;;;1.20;99.90;;;;;;6110559;23;20191;-72
2022/03/02 07:32:04;;;;;;;13.95;12.02;;;1.30;99.90;;;;;;6113604;23;20262;-81
2022/03/02 07:34:32;;;;;;;13.45;12.00;;;1.30;99.90;;;;;;6113428;23;20188;-81
2022/03/02 07:37:01;;;;;;;13.77;12.13;;;1.40;99.90;;;;;;6110314;23;20749;-72
2022/03/02 07:39:28;;;;;;;15.07;11.93;;;1.40;99.90;;;;;;6094702;23;20273;-71
2022/03/02 07:41:57;;;;;;;15.32;12.35;;;1.40;99.90;;;;;;6110755;23;20626;-71
2022/03/02 07:44:24;;;;;;;16.50;12.93;;;1.40;99.90;;;;;;6108613;23;20184;-71
2022/03/02 07:46:53;;;;;;;20.27;13.30;;;1.40;99.90;;;;;;6115395;23;20200;-72
2022/03/02 07:49:20;;;;;;;15.88;12.57;;;1.40;99.90;;;;;;6111991;23;20180;-72
2022/03/02 07:51:50;;;;;;;14.43;12.48;;;1.50;99.90;;;;;;6111877;23;20707;-71
2022/03/02 07:54:20;;;;;;;15.20;13.20;;;1.50;99.90;;;;;;6111719;23;20295;-72
2022/03/02 07:56:48;;;;;;;15.82;12.45;;;1.50;99.90;;;;;;6112471;23;20253;-71
2022/03/02 07:59:17;;;;;;;15.15;12.05;;;1.60;99.90;;;;;;6113809;23;20263;-72
2022/03/02 08:01:45;;;;;;;17.65;13.05;;;1.50;99.90;;;;;;6101789;23;20219;-71
2022/03/02 08:04:14;;;;;;;18.38;14.63;;;1.50;99.90;;;;;;6107434;23;20180;-71
2022/03/02 08:06:42;;;;;;;15.98;13.48;;;1.60;99.90;;;;;;6115611;23;20273;-71
2022/03/02 08:09:11;;;;;;;17.35;13.60;;;1.70;99.90;;;;;;6110639;23;20185;-72
2022/03/02 08:11:40;;;;;;;16.23;13.30;;;1.70;99.90;;;;;;6107588;23;20267;-71
2022/03/02 08:14:08;;;;;;;16.02;13.57;;;1.70;99.90;;;;;;6113756;23;20203;-71
2022/03/02 08:16:36;;;;;;;16.15;13.25;;;1.80;99.90;;;;;;6113955;23;20283;-72
2022/03/02 08:19:04;;;;;;;15.95;14.23;;;1.90;99.90;;;;;;6116185;23;20184;-71
2022/03/02 08:21:35;;;;;;;20.13;13.90;;;1.90;99.90;;;;;;6116258;23;20215;-71
2022/03/02 08:24:06;;;;;;;14.27;12.77;;;1.90;99.90;;;;;;6114186;23;20226;-71
2022/03/02 08:26:34;;;;;;;16.92;13.30;;;2.00;99.90;;;;;;6115597;23;20205;-71
2022/03/02 08:29:05;;;;;;;14.57;12.63;;;2.00;99.90;;;;;;6112330;23;20824;-71
2022/03/02 08:31:32;;;;;;;13.40;11.95;;;2.00;99.90;;;;;;6116149;23;20191;-71
2022/03/02 08:34:01;;;;;;;15.13;11.73;;;2.20;99.90;;;;;;6116200;23;20191;-71
2022/03/02 08:36:33;;;;;;;14.27;11.43;;;2.30;99.90;;;;;;6113203;23;20626;-70
2022/03/02 08:39:04;;;;;;;12.23;10.93;;;2.40;99.90;;;;;;6115285;23;20216;-70
2022/03/02 08:41:32;;;;;;;13.57;11.68;;;2.50;99.90;;;;;;6117492;23;20216;-69
2022/03/02 08:44:00;;;;;;;15.25;12.05;;;2.60;99.90;;;;;;6099098;23;20191;-71
2022/03/02 08:46:27;;;;;;;13.27;11.95;;;2.90;99.90;;;;;;6115370;23;20204;-71
2022/03/02 08:48:55;;;;;;;12.93;11.63;;;3.20;99.90;;;;;;6110667;23;20635;-71
2022/03/02 08:51:23;;;;;;;14.77;11.68;;;3.40;99.60;;;;;;6114100;23;20194;-72
2022/03/02 08:53:52;;;;;;;13.57;10.35;;;3.70;98.90;;;;;;6114322;23;20186;-71
2022/03/02 08:56:21;;;;;;;12.07;10.30;;;3.90;97.70;;;;;;6104125;23;20203;-71
2022/03/02 08:58:48;;;;;;;12.90;10.20;;;4.00;97.50;;;;;;6111755;23;20191;-71
2022/03/02 09:01:18;;;;;;;12.13;10.52;;;4.10;97.60;;;;;;6105308;23;20211;-72
2022/03/02 09:03:48;;;;;;;14.50;11.13;;;4.40;96.90;;;;;;6111007;23;20207;-71
2022/03/02 09:06:19;;;;;;;11.60;10.40;;;4.70;96.50;;;;;;6109275;23;20897;-72
2022/03/02 09:08:46;;;;;;;10.60;9.45;;;4.90;96.00;;;;;;6110967;23;20635;-71
2022/03/02 09:11:13;;;;;;;11.52;10.38;;;5.10;95.50;;;;;;6107565;23;20234;-82
2022/03/02 09:13:42;;;;;;;11.88;10.07;;;5.20;93.70;;;;;;6114743;23;20262;-71
2022/03/02 09:16:10;;;;;;;11.82;10.65;;;5.20;94.00;;;;;;6112079;23;20230;-71
2022/03/02 09:18:37;;;;;;;11.00;9.90;;;5.30;93.80;;;;;;6111283;23;20183;-71
2022/03/02 09:21:06;;;;;;;12.13;10.77;;;5.30;93.50;;;;;;6113035;23;20215;-72
2022/03/02 09:23:35;;;;;;;12.52;10.85;;;5.40;93.70;;;;;;6107962;23;20184;-70
2022/03/02 09:26:06;;;;;;;12.15;10.65;;;5.40;93.00;;;;;;6110600;23;20238;-71
2022/03/02 09:28:35;;;;;;;17.15;11.13;;;5.30;93.10;;;;;;6114162;23;20188;-71
2022/03/02 09:31:05;;;;;;;12.45;11.25;;;5.40;93.80;;;;;;6098952;23;20187;-71
2022/03/02 09:33:32;;;;;;;14.30;12.35;;;5.40;93.40;;;;;;6114716;23;20187;-71
2022/03/02 09:36:02;;;;;;;15.57;11.35;;;5.50;93.90;;;;;;6113039;23;20203;-72
2022/03/02 09:38:30;;;;;;;14.10;11.70;;;5.70;93.90;;;;;;6103567;23;20210;-71
2022/03/02 09:41:01;;;;;;;13.40;12.10;;;6.00;92.80;;;;;;6109653;23;20203;-71
2022/03/02 09:43:32;;;;;;;14.07;12.68;;;6.10;92.20;;;;;;6106586;23;20184;-71
2022/03/02 09:46:05;;;;;;;14.20;11.77;;;6.60;92.20;;;;;;6109116;23;20199;-71
2022/03/02 09:48:35;;;;;;;13.73;12.43;;;6.90;91.10;;;;;;6106234;23;20188;-72
2022/03/02 09:51:05;;;;;;;12.55;11.05;;;7.30;90.50;;;;;;6111872;23;20195;-72
2022/03/02 09:53:35;;;;;;;13.63;12.23;;;7.50;90.00;;;;;;6100588;23;20185;-71
2022/03/02 09:56:04;;;;;;;12.10;10.90;;;7.50;89.00;;;;;;6090716;23;20208;-72
2022/03/02 09:58:31;;;;;;;13.77;11.70;;;7.40;88.20;;;;;;6106097;23;20196;-72
2022/03/02 10:01:00;;;;;;;13.77;12.48;;;7.30;88.10;;;;;;6113619;23;20221;-72
2022/03/02 10:03:37;;;;;;;13.18;11.73;;;7.20;88.00;;;;;;6115611;23;20279;-72
2022/03/02 10:06:05;;;;;;;13.30;12.00;;;7.20;88.20;;;;;;6110651;23;20733;-72
2022/03/02 10:08:36;;;;;;;13.30;12.00;;;7.30;88.10;;;;;;6108832;23;20187;-72
2022/03/02 10:11:06;;;;;;;12.35;11.05;;;7.70;87.70;;;;;;6110619;23;20229;-73
2022/03/02 10:13:33;;;;;;;12.45;10.82;;;8.20;86.60;;;;;;6097776;23;20253;-73
2022/03/02 10:16:04;;;;;;;12.20;11.07;;;8.90;84.30;;;;;;6113589;23;20231;-72
2022/03/02 10:18:35;;;;;;;13.43;12.13;;;9.40;82.20;;;;;;6106422;23;20188;-72
2022/03/02 10:21:05;;;;;;;12.20;10.93;;;9.90;80.50;;;;;;6110401;23;20228;-72
2022/03/02 10:23:40;;;;;;;12.68;11.38;;;10.50;78.10;;;;;;6102611;23;20182;-72
2022/03/02 10:26:11;;;;;;;13.90;11.13;;;11.30;74.50;;;;;;6108974;23;20199;-72
2022/03/02 10:28:56;;;;;;;13.10;11.90;;;11.70;72.70;;;;;;6110351;23;20237;-72
2022/03/02 10:31:42;;;;;;;13.18;11.88;;;11.60;70.60;;;;;;6106840;23;20180;-72
2022/03/02 10:34:33;;;;;;;13.68;12.48;;;11.20;70.10;;;;;;6101528;23;20194;-72
2022/03/02 10:37:09;;;;;;;12.50;11.10;;;11.30;68.70;;;;;;6102175;23;20779;-73
2022/03/02 10:39:56;;;;;;;15.30;11.95;;;11.30;69.20;;;;;;6110482;23;20188;-72
2022/03/02 10:42:27;;;;;;;14.80;13.18;;;11.20;68.60;;;;;;6098058;23;20216;-73
2022/03/02 10:45:06;;;;;;;12.77;11.43;;;10.90;67.90;;;;;;6098276;23;20276;-72
2022/03/02 10:47:36;;;;;;;13.57;11.90;;;10.50;67.80;;;;;;6114237;23;20234;-72
2022/03/02 10:50:06;;;;;;;12.52;11.35;;;10.10;67.80;;;;;;6098183;23;20253;-72
2022/03/02 10:52:37;;;;;;;12.45;11.35;;;9.80;69.60;;;;;;6100654;23;20308;-79
2022/03/02 10:55:07;;;;;;;13.38;10.98;;;9.60;69.40;;;;;;6106166;23;20237;-77
2022/03/02 10:57:35;;;;;;;12.95;11.65;;;9.20;70.30;;;;;;6104733;23;20190;-72
2022/03/02 11:00:09;;;;;;;12.35;11.18;;;9.10;70.10;;;;;;6093956;23;20280;-72
2022/03/02 11:02:40;;;;;;;13.15;11.93;;;9.10;70.30;;;;;;6107340;23;20270;-72
2022/03/02 11:05:11;;;;;;;11.40;10.32;;;9.10;70.50;;;;;;6102746;23;20201;-72
2022/03/02 11:07:39;;;;;;;13.68;10.45;;;9.20;70.40;;;;;;6105812;23;20185;-72
2022/03/02 11:10:08;;;;;;;10.93;9.82;;;9.30;68.60;;;;;;6112469;23;20712;-72
2022/03/02 11:12:35;;;;;;;10.93;9.93;;;9.40;67.60;;;;;;6109125;23;20184;-72
2022/03/02 11:15:04;;;;;;;11.05;9.95;;;9.40;67.90;;;;;;6103537;23;20695;-72
2022/03/02 11:17:31;;;;;;;11.57;10.48;;;9.40;67.50;;;;;;6093466;23;20185;-72
2022/03/02 11:19:58;;;;;;;12.05;10.75;;;9.40;67.70;;;;;;6101200;23;20290;-73
2022/03/02 11:22:28;;;;;;;13.05;11.63;;;9.10;69.10;;;;;;6103440;23;20266;-72
2022/03/02 11:24:58;;;;;;;12.50;10.70;;;9.10;70.20;;;;;;6111689;23;20376;-72
2022/03/02 11:27:30;;;;;;;10.85;9.32;;;9.30;70.00;;;;;;6107610;23;20194;-69
2022/03/02 11:30:07;;;;;;;10.55;9.55;;;9.70;77.40;;;;;;6093046;23;20205;-70
2022/03/02 11:32:35;;;;;;;11.85;10.75;;;10.10;69.80;;;;;;6104146;23;20186;-70
2022/03/02 11:35:04;;;;;;;10.48;9.55;;;10.40;65.70;;;;;;6095029;23;20219;-72
2022/03/02 11:37:33;;;;;;;11.27;10.10;;;10.70;66.10;;;;;;6106364;23;20197;-73
2022/03/02 11:40:01;;;;;;;11.23;10.10;;;10.80;63.80;;;;;;6106968;23;20188;-73
2022/03/02 11:42:30;;;;;;;10.77;9.68;;;10.90;65.10;;;;;;6107531;23;20211;-73
2022/03/02 11:44:59;;;;;;;11.15;10.10;;;11.00;64.60;;;;;;6108250;23;20207;-74
2022/03/02 11:47:35;;;;;;;10.10;9.10;;;11.20;63.80;;;;;;6116240;23;20221;-73
2022/03/02 11:50:03;;;;;;;10.30;9.25;;;11.50;63.30;;;;;;6103567;23;21166;-73
2022/03/02 11:52:33;;;;;;;10.82;9.88;;;11.70;61.20;;;;;;6113094;23;20199;-73
2022/03/02 11:55:02;;;;;;;11.35;10.25;;;11.90;60.90;;;;;;6110546;23;20210;-72
2022/03/02 11:57:30;;;;;;;11.20;9.60;;;12.00;60.90;;;;;;6109064;23;20192;-73
2022/03/02 12:00:10;;;;;;;10.95;9.73;;;12.30;60.80;;;;;;6106389;23;20191;-72
2022/03/02 12:02:43;;;;;;;10.38;9.20;;;13.00;61.40;;;;;;6098793;23;20219;-73
2022/03/02 12:05:10;;;;;;;10.10;9.10;;;13.60;58.00;;;;;;6104285;23;20207;-72
2022/03/02 12:07:40;;;;;;;10.70;9.70;;;14.10;56.60;;;;;;6117518;23;20937;-73
2022/03/02 12:10:17;;;;;;;10.30;9.43;;;14.30;55.20;;;;;;6103339;23;20554;-73
2022/03/02 12:12:46;;;;;;;10.60;9.63;;;14.50;54.50;;;;;;6113065;23;20457;-72
2022/03/02 12:15:13;;;;;;;10.03;9.13;;;14.60;54.00;;;;;;6099851;23;20502;-72
2022/03/02 12:17:40;;;;;;;10.47;9.47;;;14.70;53.40;;;;;;6101314;23;20446;-72
2022/03/02 12:20:11;;;;;;;10.30;9.33;;;14.70;53.00;;;;;;6096213;23;20449;-72
2022/03/02 12:22:41;;;;;;;10.50;9.40;;;14.80;52.90;;;;;;6110477;23;20975;-72
2022/03/02 12:25:10;;;;;;;9.87;8.97;;;14.80;52.20;;;;;;6103562;23;20452;-73
2022/03/02 12:27:37;;;;;;;11.00;9.80;;;14.60;52.40;;;;;;6096943;23;20879;-73
2022/03/02 12:30:07;;;;;;;10.30;9.33;;;14.40;52.70;;;;;;6102184;23;20442;-74
2022/03/02 12:32:36;;;;;;;10.10;9.20;;;14.30;52.60;;;;;;6102129;23;20445;-73
2022/03/02 12:35:06;;;;;;;9.97;9.07;;;14.10;52.70;;;;;;6112085;23;20545;-74
2022/03/02 12:37:33;;;;;;;11.25;10.07;;;13.80;54.70;;;;;;6094121;23;20610;-74
2022/03/02 12:40:03;;;;;;;10.55;9.50;;;13.40;53.20;;;;;;6110591;23;20188;-72
2022/03/02 12:42:30;;;;;;;10.93;9.15;;;13.00;53.80;;;;;;6104975;23;20226;-72
2022/03/02 12:44:58;;;;;;;10.45;9.32;;;12.70;54.30;;;;;;6103364;23;20278;-74